createdAt,value
2023-01-08T00:01:44.110Z,44.00
2023-01-08T00:04:46.256Z,39.08
2023-01-08T00:07:48.789Z,50.85
2023-01-08T00:10:55.824Z,46.72
2023-01-08T00:13:57.974Z,46.53
2023-01-08T00:17:00.464Z,42.85
2023-01-08T00:20:02.682Z,42.33
2023-01-08T00:23:04.932Z,42.88
2023-01-08T00:26:09.937Z,44.67
2023-01-08T00:29:12.047Z,45.67
2023-01-08T00:32:14.139Z,48.28
2023-01-08T00:35:16.318Z,47.10
2023-01-08T00:38:18.471Z,51.15
2023-01-08T00:41:20.702Z,46.75
2023-01-08T00:44:22.868Z,51.15
2023-01-08T00:47:24.972Z,47.90
2023-01-08T00:50:27.635Z,54.35
2023-01-08T00:53:30.192Z,42.63
2023-01-08T00:56:32.335Z,51.30
2023-01-08T00:59:34.469Z,49.95
2023-01-08T01:02:37.467Z,53.15
2023-01-08T01:05:39.594Z,54.78
2023-01-08T01:08:42.394Z,50.42
2023-01-08T01:11:44.511Z,50.95
2023-01-08T01:14:46.703Z,47.28
2023-01-08T01:17:48.816Z,51.80
2023-01-08T01:20:51.557Z,43.45
2023-01-08T01:23:55.558Z,43.25
2023-01-08T01:26:57.721Z,42.80
2023-01-08T01:30:00.029Z,54.38
2023-01-08T01:33:02.148Z,57.42
2023-01-08T01:36:04.607Z,51.67
2023-01-08T01:39:07.181Z,50.53
2023-01-08T01:42:35.978Z,47.05
2023-01-08T01:45:38.151Z,47.50
2023-01-08T01:48:40.333Z,48.67
2023-01-08T01:51:47.737Z,42.40
2023-01-08T01:54:52.772Z,54.15
2023-01-08T01:58:23.620Z,48.15
2023-01-08T02:01:27.079Z,56.55
2023-01-08T02:04:29.383Z,48.47
2023-01-08T02:07:50.107Z,46.50
2023-01-08T02:10:58.779Z,43.42
2023-01-08T02:14:24.746Z,47.40
2023-01-08T02:17:41.945Z,53.53
2023-01-08T02:20:54.537Z,43.42
2023-01-08T02:24:22.445Z,48.75
2023-01-08T02:27:28.061Z,47.42
2023-01-08T02:30:31.056Z,45.55
2023-01-08T02:33:33.864Z,49.78
2023-01-08T02:36:38.163Z,56.42
2023-01-08T02:39:58.229Z,52.17
2023-01-08T02:43:12.706Z,46.38
2023-01-08T02:46:19.724Z,46.97
2023-01-08T02:49:29.195Z,50.25
2023-01-08T02:52:35.075Z,47.30
2023-01-08T02:55:39.217Z,38.97
2023-01-08T02:58:43.745Z,38.80
2023-01-08T03:01:46.667Z,49.28
2023-01-08T03:05:07.477Z,45.45
2023-01-08T03:08:10.795Z,48.50
2023-01-08T03:11:21.894Z,47.42
2023-01-08T03:14:37.688Z,52.72
2023-01-08T03:17:46.851Z,44.85
2023-01-08T03:20:51.063Z,42.35
2023-01-08T03:23:53.438Z,42.50
2023-01-08T03:26:59.609Z,41.75
2023-01-08T03:30:04.699Z,46.25
2023-01-08T03:33:10.299Z,41.13
2023-01-08T03:36:16.308Z,47.00
2023-01-08T03:39:30.846Z,50.38
2023-01-08T03:42:33.371Z,50.75
2023-01-08T03:45:37.583Z,41.80
2023-01-08T03:48:41.448Z,45.28
2023-01-08T03:51:47.373Z,47.95
2023-01-08T03:54:49.634Z,45.50
2023-01-08T03:57:51.769Z,52.97
2023-01-08T04:00:54.022Z,52.38
2023-01-08T04:03:56.183Z,49.10
2023-01-08T04:06:58.430Z,48.08
2023-01-08T04:10:00.563Z,50.80
2023-01-08T04:13:02.795Z,48.53
2023-01-08T04:16:06.238Z,44.65
2023-01-08T04:19:08.376Z,53.15
2023-01-08T04:22:11.678Z,48.08
2023-01-08T04:25:13.906Z,42.47
2023-01-08T04:28:16.030Z,45.15
2023-01-08T04:31:18.214Z,50.60
2023-01-08T04:34:20.388Z,42.92
2023-01-08T04:37:22.488Z,43.38
2023-01-08T04:40:24.624Z,39.22
2023-01-08T04:43:27.861Z,46.22
2023-01-08T04:46:30.112Z,47.28
2023-01-08T04:49:32.266Z,47.75
2023-01-08T04:52:34.394Z,55.00
2023-01-08T04:55:38.438Z,48.72
2023-01-08T04:58:41.798Z,44.10
2023-01-08T05:01:44.351Z,41.65
2023-01-08T05:04:48.118Z,46.25
2023-01-08T05:07:50.256Z,47.92
2023-01-08T05:10:52.462Z,40.13
2023-01-08T05:13:55.355Z,47.78
2023-01-08T05:16:57.552Z,47.78
2023-01-08T05:19:59.691Z,54.47
2023-01-08T05:23:02.258Z,50.50
2023-01-08T05:26:06.213Z,49.60
2023-01-08T05:29:08.320Z,46.85
2023-01-08T05:32:16.297Z,46.05
2023-01-08T05:35:18.634Z,49.95
2023-01-08T05:38:20.733Z,41.45
2023-01-08T05:41:22.961Z,47.00
2023-01-08T05:44:25.175Z,44.47
2023-01-08T05:47:30.954Z,43.47
2023-01-08T05:50:34.128Z,46.78
2023-01-08T05:53:36.391Z,52.80
2023-01-08T05:56:38.569Z,42.35
2023-01-08T05:59:40.761Z,52.47
2023-01-08T06:02:47.563Z,51.95
2023-01-08T06:05:49.802Z,52.53
2023-01-08T06:08:51.967Z,52.33
2023-01-08T06:11:54.133Z,44.55
2023-01-08T06:14:56.224Z,44.70
2023-01-08T06:18:01.844Z,47.17
2023-01-08T06:21:05.237Z,45.67
2023-01-08T06:24:07.531Z,43.75
2023-01-08T06:27:09.647Z,45.80
2023-01-08T06:30:11.987Z,52.05
2023-01-08T06:33:14.519Z,43.22
2023-01-08T06:36:16.639Z,46.83
2023-01-08T06:39:18.788Z,52.47
2023-01-08T06:42:20.893Z,46.78
2023-01-08T06:45:23.037Z,38.80
2023-01-08T06:48:25.815Z,46.47
2023-01-08T06:51:27.924Z,45.30
2023-01-08T06:54:30.115Z,58.35
2023-01-08T06:57:32.302Z,47.08
2023-01-08T07:00:34.402Z,48.58
2023-01-08T07:03:36.693Z,48.95
2023-01-08T07:06:38.855Z,56.88
2023-01-08T07:09:42.417Z,47.75
2023-01-08T07:12:44.522Z,45.00
2023-01-08T07:15:46.706Z,51.78
2023-01-08T07:18:48.900Z,48.67
2023-01-08T07:21:50.973Z,41.67
2023-01-08T07:24:53.366Z,41.25
2023-01-08T07:27:55.433Z,51.53
2023-01-08T07:30:57.996Z,46.60
2023-01-08T07:34:00.152Z,45.50
2023-01-08T07:37:02.941Z,42.88
2023-01-08T07:40:05.631Z,43.13
2023-01-08T07:43:09.285Z,49.92
2023-01-08T07:46:11.486Z,47.80
2023-01-08T07:49:13.662Z,38.90
2023-01-08T07:52:15.902Z,42.22
2023-01-08T07:55:18.041Z,45.15
2023-01-08T07:58:20.185Z,45.85
2023-01-08T08:01:24.217Z,41.80
2023-01-08T08:04:26.492Z,49.65
2023-01-08T08:07:31.476Z,48.33
2023-01-08T08:10:33.765Z,53.72
2023-01-08T08:13:35.891Z,43.40
2023-01-08T08:16:38.334Z,43.13
2023-01-08T08:19:43.830Z,42.20
2023-01-08T08:22:45.959Z,36.30
2023-01-08T08:25:48.071Z,38.92
2023-01-08T08:28:50.396Z,45.40
2023-01-08T08:31:52.540Z,48.78
2023-01-08T08:34:54.655Z,42.83
2023-01-08T08:37:57.391Z,46.78
2023-01-08T08:40:59.602Z,44.72
2023-01-08T08:44:01.717Z,41.88
2023-01-08T08:47:08.522Z,47.20
2023-01-08T08:50:13.508Z,46.25
2023-01-08T08:53:16.233Z,44.65
2023-01-08T08:56:18.458Z,45.28
2023-01-08T08:59:20.616Z,42.47
2023-01-08T09:02:22.850Z,43.03
2023-01-08T09:05:25.367Z,47.58
2023-01-08T09:08:27.476Z,40.97
2023-01-08T09:11:29.624Z,43.50
2023-01-08T09:14:31.773Z,49.60
2023-01-08T09:17:34.234Z,44.08
2023-01-08T09:20:36.836Z,39.28
2023-01-08T09:23:39.937Z,42.15
2023-01-08T09:26:42.253Z,41.80
2023-01-08T09:29:44.448Z,45.42
2023-01-08T09:32:46.657Z,44.97
2023-01-08T09:35:48.761Z,42.92
2023-01-08T09:38:50.962Z,43.67
2023-01-08T09:41:53.799Z,45.08
2023-01-08T09:44:57.268Z,38.88
2023-01-08T09:48:06.858Z,40.35
2023-01-08T09:51:18.489Z,36.67
2023-01-08T09:54:25.220Z,37.80
2023-01-08T09:57:29.065Z,36.22
2023-01-08T10:00:34.560Z,32.88
2023-01-08T10:03:44.106Z,34.17
2023-01-08T10:07:12.488Z,37.85
2023-01-08T10:10:25.966Z,31.38
2023-01-08T10:13:28.120Z,39.70
2023-01-08T10:16:35.823Z,35.65
2023-01-08T10:19:38.023Z,35.47
2023-01-08T10:22:40.194Z,35.33
2023-01-08T10:26:00.952Z,33.53
2023-01-08T10:29:19.256Z,33.80
2023-01-08T10:32:31.757Z,35.25
2023-01-08T10:35:43.342Z,32.60
2023-01-08T10:38:57.880Z,30.63
2023-01-08T10:42:06.413Z,31.17
2023-01-08T10:45:22.239Z,34.88
2023-01-08T10:48:30.283Z,34.05
2023-01-08T10:51:33.898Z,36.25
2023-01-08T10:54:39.226Z,33.15
2023-01-08T10:58:01.665Z,33.55
2023-01-08T11:01:13.125Z,30.25
2023-01-08T11:04:32.820Z,33.72
2023-01-08T11:07:35.587Z,29.65
2023-01-08T11:10:38.005Z,30.33
2023-01-08T11:13:40.259Z,29.02
2023-01-08T11:16:43.050Z,31.17
2023-01-08T11:19:45.266Z,34.15
2023-01-08T11:22:47.562Z,37.05
2023-01-08T11:26:05.748Z,27.33
2023-01-08T11:29:34.176Z,31.58
2023-01-08T11:32:54.950Z,32.72
2023-01-08T11:36:04.705Z,32.15
2023-01-08T11:39:09.374Z,29.55
2023-01-08T11:42:26.112Z,33.83
2023-01-08T11:45:45.982Z,33.05
2023-01-08T11:48:56.700Z,37.72
2023-01-08T11:52:24.758Z,27.23
2023-01-08T11:55:32.553Z,27.02
2023-01-08T11:59:08.687Z,30.98
2023-01-08T12:02:31.325Z,26.33
2023-01-08T12:05:56.467Z,30.58
2023-01-08T12:09:01.360Z,32.13
2023-01-08T12:12:28.527Z,29.65
2023-01-08T12:15:45.693Z,28.20
2023-01-08T12:18:59.552Z,32.55
2023-01-08T12:22:28.245Z,29.58
2023-01-08T12:25:50.893Z,29.05
2023-01-08T12:29:04.853Z,25.85
2023-01-08T12:32:37.800Z,31.25
2023-01-08T12:35:44.319Z,29.75
2023-01-08T12:38:55.725Z,28.50
2023-01-08T12:42:18.111Z,30.33
2023-01-08T12:45:28.672Z,33.40
2023-01-08T12:48:35.541Z,24.95
2023-01-08T12:51:54.396Z,26.80
2023-01-08T12:55:04.928Z,28.35
2023-01-08T12:58:25.852Z,32.55
2023-01-08T13:01:46.829Z,29.10
2023-01-08T13:04:49.363Z,28.85
2023-01-08T13:07:58.844Z,26.00
2023-01-08T13:11:01.827Z,28.77
2023-01-08T13:14:10.398Z,28.20
2023-01-08T13:17:22.352Z,24.35
2023-01-08T13:20:28.071Z,29.52
2023-01-08T13:23:32.058Z,26.90
2023-01-08T13:26:36.598Z,28.88
2023-01-08T13:29:42.814Z,28.92
2023-01-08T13:32:47.958Z,26.92
2023-01-08T13:35:50.133Z,24.50
2023-01-08T13:39:10.396Z,23.95
2023-01-08T13:42:16.482Z,22.13
2023-01-08T13:45:18.686Z,23.45
2023-01-08T13:48:26.116Z,22.52
2023-01-08T13:51:54.409Z,19.15
2023-01-08T13:54:56.936Z,22.63
2023-01-08T13:58:02.116Z,22.38
2023-01-08T14:01:06.166Z,22.75
2023-01-08T14:04:08.675Z,20.63
2023-01-08T14:07:14.776Z,19.50
2023-01-08T14:10:18.261Z,21.27
2023-01-08T14:13:27.032Z,20.95
2023-01-08T14:16:29.506Z,24.60
2023-01-08T14:19:31.822Z,21.20
2023-01-08T14:22:34.999Z,25.73
2023-01-08T14:25:37.376Z,21.35
2023-01-08T14:28:39.544Z,19.52
2023-01-08T14:31:50.088Z,21.55
2023-01-08T14:34:54.142Z,22.05
2023-01-08T14:37:56.599Z,22.58
2023-01-08T14:41:03.992Z,21.27
2023-01-08T14:44:06.156Z,25.67
2023-01-08T14:47:18.448Z,22.45
2023-01-08T14:50:29.840Z,22.95
2023-01-08T14:53:35.504Z,24.38
2023-01-08T14:56:37.686Z,19.05
2023-01-08T14:59:40.169Z,21.50
2023-01-08T15:02:42.475Z,23.13
2023-01-08T15:05:54.471Z,24.73
2023-01-08T15:08:57.548Z,21.42
2023-01-08T15:12:06.714Z,19.02
2023-01-08T15:15:12.768Z,21.92
2023-01-08T15:18:15.017Z,19.23
2023-01-08T15:21:23.083Z,16.83
2023-01-08T15:24:39.407Z,21.55
2023-01-08T15:27:42.905Z,20.25
2023-01-08T15:30:46.552Z,21.25
2023-01-08T15:33:48.683Z,21.10
2023-01-08T15:36:50.809Z,21.05
2023-01-08T15:39:53.330Z,19.88
2023-01-08T15:43:10.316Z,20.55
2023-01-08T15:46:12.443Z,23.73
2023-01-08T15:49:14.525Z,20.20
2023-01-08T15:52:20.823Z,20.40
2023-01-08T15:55:24.685Z,18.85
2023-01-08T15:58:26.842Z,17.98
2023-01-08T16:01:29.270Z,20.00
2023-01-08T16:04:31.420Z,18.95
2023-01-08T16:07:34.537Z,17.98
2023-01-08T16:10:37.353Z,18.38
2023-01-08T16:13:39.807Z,19.35
2023-01-08T16:16:41.992Z,18.13
2023-01-08T16:19:44.089Z,20.88
2023-01-08T16:22:46.444Z,19.67
2023-01-08T16:25:48.501Z,18.02
2023-01-08T16:28:50.631Z,17.73
2023-01-08T16:31:52.850Z,19.20
2023-01-08T16:34:55.173Z,18.30
2023-01-08T16:37:57.248Z,19.67
2023-01-08T16:41:02.556Z,18.90
2023-01-08T16:44:04.956Z,18.30
2023-01-08T16:47:07.134Z,22.58
2023-01-08T16:50:11.275Z,17.08
2023-01-08T16:53:14.560Z,19.58
2023-01-08T16:56:16.701Z,19.20
2023-01-08T16:59:23.708Z,21.15
2023-01-08T17:02:26.138Z,21.02
2023-01-08T17:05:28.742Z,21.48
2023-01-08T17:08:30.929Z,20.02
2023-01-08T17:11:33.353Z,20.33
2023-01-08T17:14:36.742Z,20.65
2023-01-08T17:17:38.992Z,19.35
2023-01-08T17:20:41.166Z,17.23
2023-01-08T17:23:43.554Z,18.67
2023-01-08T17:26:45.770Z,18.55
2023-01-08T17:29:47.917Z,19.45
2023-01-08T17:32:50.104Z,17.05
2023-01-08T17:35:52.165Z,20.65
2023-01-08T17:38:54.562Z,17.02
2023-01-08T17:42:15.315Z,16.15
2023-01-08T17:45:17.449Z,16.83
2023-01-08T17:48:19.616Z,14.63
2023-01-08T17:51:21.782Z,17.95
2023-01-08T17:54:24.347Z,18.98
2023-01-08T17:57:26.662Z,15.23
2023-01-08T18:00:29.159Z,18.02
2023-01-08T18:03:31.307Z,18.48
2023-01-08T18:06:33.425Z,13.38
2023-01-08T18:09:36.836Z,16.42
2023-01-08T18:12:40.490Z,18.85
2023-01-08T18:15:42.559Z,13.90
2023-01-08T18:18:44.700Z,16.13
2023-01-08T18:21:48.064Z,18.73
2023-01-08T18:24:50.534Z,18.00
2023-01-08T18:27:52.726Z,16.00
2023-01-08T18:30:54.896Z,15.88
2023-01-08T18:33:57.009Z,18.25
2023-01-08T18:36:59.146Z,14.55
2023-01-08T18:40:01.273Z,15.35
2023-01-08T18:43:03.355Z,16.80
2023-01-08T18:46:07.983Z,16.75
2023-01-08T18:49:10.248Z,14.27
2023-01-08T18:52:14.152Z,20.05
2023-01-08T18:55:16.403Z,17.48
2023-01-08T18:58:18.493Z,17.35
2023-01-08T19:01:20.717Z,17.63
2023-01-08T19:04:23.303Z,14.13
2023-01-08T19:07:26.147Z,17.15
2023-01-08T19:10:28.264Z,15.57
2023-01-08T19:13:30.471Z,16.77
2023-01-08T19:16:32.635Z,15.57
2023-01-08T19:19:35.177Z,14.65
2023-01-08T19:22:37.512Z,16.30
2023-01-08T19:25:40.748Z,17.48
2023-01-08T19:28:44.115Z,15.35
2023-01-08T19:31:46.944Z,16.30
2023-01-08T19:34:56.734Z,15.52
2023-01-08T19:37:59.805Z,13.98
2023-01-08T19:41:02.361Z,13.93
2023-01-08T19:44:05.581Z,13.95
2023-01-08T19:47:08.310Z,15.43
2023-01-08T19:50:11.427Z,15.15
2023-01-08T19:53:14.729Z,13.90
2023-01-08T19:56:18.467Z,14.82
2023-01-08T19:59:21.743Z,14.43
2023-01-08T20:02:24.894Z,17.17
2023-01-08T20:05:28.163Z,15.48
2023-01-08T20:08:32.718Z,15.90
2023-01-08T20:11:36.272Z,17.02
2023-01-08T20:14:40.019Z,15.95
2023-01-08T20:17:43.270Z,15.10
2023-01-08T20:20:47.076Z,16.13
2023-01-08T20:23:59.672Z,15.57
2023-01-08T20:27:04.050Z,12.57
2023-01-08T20:30:11.682Z,14.27
2023-01-08T20:33:17.681Z,14.73
2023-01-08T20:36:23.126Z,14.00
2023-01-08T20:39:26.368Z,13.68
2023-01-08T20:42:34.095Z,14.38
2023-01-08T20:45:41.756Z,14.82
2023-01-08T20:48:48.609Z,14.05
2023-01-08T20:51:58.449Z,14.55
2023-01-08T20:58:05.011Z,13.35
2023-01-08T21:01:15.552Z,13.77
2023-01-08T21:04:19.482Z,14.38
2023-01-08T21:07:23.110Z,13.93
2023-01-08T21:10:26.460Z,13.70
2023-01-08T21:13:29.962Z,11.65
2023-01-08T21:16:35.717Z,13.02
2023-01-08T21:19:38.962Z,14.02
2023-01-08T21:22:43.309Z,13.85
2023-01-08T21:25:46.704Z,12.35
2023-01-08T21:28:53.100Z,12.70
2023-01-08T21:31:55.854Z,12.68
2023-01-08T21:34:59.010Z,11.90
2023-01-08T21:38:01.187Z,12.15
2023-01-08T21:41:07.097Z,14.73
2023-01-08T21:45:05.646Z,12.05
2023-01-08T21:48:07.789Z,11.13
2023-01-08T21:51:30.128Z,11.20
2023-01-08T21:54:32.238Z,11.75
2023-01-08T21:57:40.745Z,13.57
2023-01-08T22:00:42.912Z,11.88
2023-01-08T22:03:45.078Z,10.93
2023-01-08T22:06:47.297Z,10.77
2023-01-08T22:09:49.379Z,11.05
2023-01-08T22:12:51.484Z,10.95
2023-01-08T22:16:09.281Z,11.60
2023-01-08T22:19:11.498Z,9.27
2023-01-08T22:22:13.747Z,8.13
2023-01-08T22:25:15.890Z,8.80
2023-01-08T22:28:18.047Z,7.68
2023-01-08T22:31:20.226Z,8.73
2023-01-08T22:34:22.402Z,8.20
2023-01-08T22:37:24.539Z,8.25
2023-01-08T22:40:26.644Z,8.63
2023-01-08T22:43:29.126Z,7.15
2023-01-08T22:46:31.792Z,6.82
2023-01-08T22:49:33.910Z,7.20
2023-01-08T22:52:36.017Z,6.85
2023-01-08T22:55:42.485Z,5.60
2023-01-08T22:58:45.486Z,7.15
2023-01-08T23:01:47.623Z,7.15
2023-01-08T23:04:51.090Z,7.38
2023-01-08T23:07:53.332Z,5.32
2023-01-08T23:10:57.410Z,6.80
2023-01-08T23:14:00.922Z,5.95
2023-01-08T23:17:03.140Z,6.28
2023-01-08T23:20:05.761Z,6.85
2023-01-08T23:23:07.901Z,6.35
2023-01-08T23:26:13.170Z,5.70
2023-01-08T23:29:15.274Z,6.70
2023-01-08T23:32:17.473Z,5.90
2023-01-08T23:35:19.695Z,4.82
2023-01-08T23:38:21.854Z,4.88
2023-01-08T23:41:33.093Z,4.78
2023-01-08T23:44:36.815Z,5.68
2023-01-08T23:47:38.929Z,5.32
2023-01-08T23:50:41.012Z,4.40
2023-01-08T23:53:43.124Z,4.63
2023-01-08T23:56:45.433Z,4.32
2023-01-08T23:59:47.621Z,4.55
